Time;durP1;ratioP1;P1;durP2;ratioP2;P2;SDS_P1;SDS_P2;PMS_P1;PMS_P2;Temp;Humidity;BMP_temperature;BMP_pressure;BME280_temperature;BME280_humidity;BME280_pressure;Samples;Min_cycle;Max_cycle;Signal;HPM_P1;HPM_P2
2021/11/22 00:01:52;;;;;;;6.47;3.60;;;6.30;84.70;;;;;;5082823;28;20187;-80
2021/11/22 00:04:18;;;;;;;7.82;3.25;;;6.20;84.70;;;;;;5102707;28;20219;-81
2021/11/22 00:06:43;;;;;;;12.63;3.23;;;6.10;85.20;;;;;;5069996;28;20172;-81
2021/11/22 00:09:09;;;;;;;6.67;3.20;;;6.20;85.30;;;;;;5077584;28;20831;-81
2021/11/22 00:11:35;;;;;;;16.83;3.43;;;6.10;85.50;;;;;;5078057;28;20175;-80
2021/11/22 00:14:01;;;;;;;7.77;3.90;;;6.00;85.80;;;;;;5096380;28;20225;-81
2021/11/22 00:16:28;;;;;;;6.20;2.90;;;6.00;86.10;;;;;;5079803;28;20445;-81
2021/11/22 00:18:55;;;;;;;7.03;2.05;;;6.00;86.20;;;;;;5079477;28;20203;-81
2021/11/22 00:21:21;;;;;;;6.60;2.60;;;6.00;86.40;;;;;;5078509;28;20711;-81
2021/11/22 00:23:46;;;;;;;9.47;2.33;;;6.00;86.50;;;;;;5095278;28;20200;-81
2021/11/22 00:26:12;;;;;;;7.73;2.20;;;6.10;86.50;;;;;;5095733;28;20418;-81
2021/11/22 00:28:38;;;;;;;8.00;2.63;;;6.20;86.20;;;;;;5094834;28;20421;-81
2021/11/22 00:31:04;;;;;;;9.40;2.60;;;6.30;86.10;;;;;;5076893;28;20192;-81
2021/11/22 00:33:30;;;;;;;9.73;3.07;;;6.30;85.90;;;;;;5094612;28;20410;-81
2021/11/22 00:35:56;;;;;;;6.50;2.50;;;6.20;85.90;;;;;;5094604;28;20186;-81
2021/11/22 00:38:22;;;;;;;9.70;2.80;;;6.20;85.90;;;;;;5097191;28;20207;-80
2021/11/22 00:40:48;;;;;;;9.60;3.30;;;6.20;85.90;;;;;;5099242;28;20175;-80
2021/11/22 00:43:14;;;;;;;8.10;2.45;;;6.20;85.90;;;;;;5080539;28;20204;-80
2021/11/22 00:45:40;;;;;;;7.10;2.42;;;6.10;86.10;;;;;;5098562;28;20263;-80
2021/11/22 00:48:06;;;;;;;7.23;2.50;;;6.00;86.20;;;;;;5081435;28;20215;-80
2021/11/22 00:50:35;;;;;;;6.25;2.38;;;6.10;86.50;;;;;;5080759;28;20180;-80
2021/11/22 00:53:02;;;;;;;3.75;2.60;;;6.10;86.50;;;;;;5081029;28;20180;-80
2021/11/22 00:55:28;;;;;;;4.93;2.60;;;6.20;86.40;;;;;;5099445;28;20196;-81
2021/11/22 00:57:53;;;;;;;6.47;2.67;;;6.10;86.40;;;;;;5081047;28;20199;-81
2021/11/22 01:00:23;;;;;;;11.33;2.50;;;6.00;86.60;;;;;;5090490;28;20262;-80
2021/11/22 01:02:49;;;;;;;10.40;2.10;;;6.10;86.90;;;;;;5112065;28;20204;-80
2021/11/22 01:05:15;;;;;;;9.90;2.97;;;6.10;86.70;;;;;;5093942;28;20625;-80
2021/11/22 01:07:40;;;;;;;14.80;2.30;;;6.00;86.70;;;;;;5092832;28;20812;-80
2021/11/22 01:10:08;;;;;;;4.60;2.60;;;6.10;86.80;;;;;;5090552;28;20183;-80
2021/11/22 01:12:34;;;;;;;8.35;1.85;;;6.10;86.80;;;;;;5085631;28;20551;-80
2021/11/22 01:15:03;;;;;;;9.48;2.70;;;6.20;86.80;;;;;;5082106;28;20222;-80
2021/11/22 01:17:29;;;;;;;8.30;2.35;;;6.20;86.70;;;;;;5081628;28;20204;-80
2021/11/22 01:19:55;;;;;;;13.90;2.63;;;6.20;86.50;;;;;;5099667;28;20535;-81
2021/11/22 01:22:21;;;;;;;4.57;2.10;;;6.10;86.60;;;;;;5081267;28;20180;-79
2021/11/22 01:24:47;;;;;;;12.00;2.33;;;6.20;86.50;;;;;;5098446;28;20864;-80
2021/11/22 01:27:13;;;;;;;11.27;2.20;;;6.10;86.70;;;;;;5100146;28;20180;-80
2021/11/22 01:29:39;;;;;;;2.42;2.03;;;6.00;86.70;;;;;;5100810;28;20417;-80
2021/11/22 01:32:05;;;;;;;8.30;1.83;;;6.00;86.90;;;;;;5096101;28;20217;-80
2021/11/22 01:34:32;;;;;;;3.70;2.10;;;6.00;86.90;;;;;;5096703;28;20464;-80
2021/11/22 01:36:57;;;;;;;3.53;2.17;;;6.10;87.10;;;;;;5096204;28;20184;-81
2021/11/22 01:39:23;;;;;;;7.73;2.40;;;6.00;87.00;;;;;;5095545;28;20657;-81
2021/11/22 01:41:49;;;;;;;3.75;2.22;;;6.10;87.00;;;;;;5097480;28;20248;-80
2021/11/22 01:44:15;;;;;;;5.25;1.75;;;6.10;86.90;;;;;;5096681;28;20180;-79
2021/11/22 01:46:41;;;;;;;5.33;2.10;;;6.20;86.60;;;;;;5111404;28;20172;-79
2021/11/22 01:49:07;;;;;;;18.60;2.53;;;6.20;87.30;;;;;;5100364;28;20263;-79
2021/11/22 01:51:33;;;;;;;3.58;1.90;;;6.20;86.50;;;;;;5100725;28;20176;-79
2021/11/22 01:53:59;;;;;;;8.70;1.70;;;6.40;86.20;;;;;;5099071;28;20204;-79
2021/11/22 01:56:26;;;;;;;4.53;1.95;;;6.30;86.00;;;;;;5102568;28;20249;-80
2021/11/22 01:58:52;;;;;;;6.30;1.73;;;6.30;85.90;;;;;;5085190;28;20230;-79
2021/11/22 02:01:18;;;;;;;6.45;1.92;;;6.20;85.70;;;;;;5087655;28;20176;-80
2021/11/22 02:03:44;;;;;;;2.95;1.40;;;6.20;85.80;;;;;;5094978;28;20274;-80
2021/11/22 02:06:10;;;;;;;7.07;1.58;;;6.20;85.80;;;;;;5087032;28;20184;-80
2021/11/22 02:08:36;;;;;;;7.40;1.63;;;6.20;85.80;;;;;;5088418;28;20214;-79
2021/11/22 02:11:03;;;;;;;4.82;1.70;;;6.20;85.80;;;;;;5102962;28;20207;-79
2021/11/22 02:13:29;;;;;;;4.80;1.88;;;6.30;85.80;;;;;;5102104;28;20625;-80
2021/11/22 02:15:55;;;;;;;9.90;2.00;;;6.20;85.70;;;;;;5084573;28;20208;-79
2021/11/22 02:18:21;;;;;;;9.37;1.90;;;6.10;85.90;;;;;;5067710;28;20591;-79
2021/11/22 02:20:47;;;;;;;2.95;1.95;;;6.10;86.00;;;;;;5102106;28;20421;-79
2021/11/22 02:23:15;;;;;;;5.70;2.40;;;6.00;85.90;;;;;;5083764;28;20176;-80
2021/11/22 02:25:42;;;;;;;5.90;1.90;;;6.00;86.20;;;;;;5103127;28;20232;-80
2021/11/22 02:28:09;;;;;;;2.60;1.88;;;6.00;86.20;;;;;;5102237;28;20180;-80
2021/11/22 02:30:39;;;;;;;6.75;1.65;;;6.10;86.20;;;;;;5084252;28;20214;-80
2021/11/22 02:33:12;;;;;;;3.83;1.77;;;6.10;86.90;;;;;;5101941;28;20184;-80
2021/11/22 02:35:42;;;;;;;8.13;2.45;;;6.10;86.00;;;;;;5085063;28;20689;-79
2021/11/22 02:38:08;;;;;;;6.88;1.77;;;6.00;85.90;;;;;;5085700;28;20231;-80
2021/11/22 02:40:34;;;;;;;7.55;1.95;;;6.00;86.10;;;;;;5084897;28;20180;-80
2021/11/22 02:43:00;;;;;;;11.60;1.80;;;6.00;85.90;;;;;;5084059;28;20253;-81
2021/11/22 02:45:26;;;;;;;2.73;1.80;;;6.00;85.90;;;;;;5083775;28;20429;-80
2021/11/22 02:47:52;;;;;;;2.53;1.80;;;6.10;85.90;;;;;;5083045;28;20475;-80
2021/11/22 02:50:20;;;;;;;5.03;1.92;;;6.10;85.70;;;;;;5083754;28;20243;-80
2021/11/22 02:52:48;;;;;;;1.77;1.45;;;6.10;85.60;;;;;;5102168;28;20205;-79
2021/11/22 02:55:16;;;;;;;1.50;1.40;;;6.00;85.40;;;;;;5082399;28;20278;-80
2021/11/22 02:57:42;;;;;;;20.58;1.80;;;5.90;85.50;;;;;;5084040;28;20294;-80
2021/11/22 03:00:18;;;;;;;2.42;1.40;;;6.00;85.60;;;;;;5082877;28;20210;-80
2021/11/22 03:02:45;;;;;;;3.88;1.50;;;6.00;85.50;;;;;;5083489;28;20532;-79
2021/11/22 03:05:11;;;;;;;6.88;1.98;;;6.00;85.30;;;;;;5100839;28;20308;-80
2021/11/22 03:07:37;;;;;;;7.03;1.55;;;5.90;85.50;;;;;;5064162;28;20596;-80
2021/11/22 03:10:05;;;;;;;9.50;1.70;;;5.90;85.60;;;;;;5098778;28;20176;-80
2021/11/22 03:12:31;;;;;;;2.90;1.40;;;5.90;85.40;;;;;;5080953;28;20952;-81
2021/11/22 03:14:57;;;;;;;2.47;1.70;;;5.90;85.50;;;;;;5079397;28;20215;-80
2021/11/22 03:17:22;;;;;;;6.53;1.53;;;6.00;85.50;;;;;;5079179;28;20200;-80
2021/11/22 03:19:48;;;;;;;4.80;1.53;;;6.00;85.20;;;;;;5079220;28;20425;-80
2021/11/22 03:22:14;;;;;;;4.10;1.53;;;5.90;85.00;;;;;;5098936;28;20172;-80
2021/11/22 03:24:40;;;;;;;3.20;1.37;;;5.90;85.20;;;;;;5100576;28;20929;-80
2021/11/22 03:27:06;;;;;;;4.80;1.80;;;6.00;85.20;;;;;;5101541;28;20175;-80
2021/11/22 03:29:32;;;;;;;3.92;2.30;;;5.90;85.10;;;;;;5101254;28;20439;-80
2021/11/22 03:31:58;;;;;;;1.77;1.50;;;5.80;85.30;;;;;;5099805;28;20258;-80
2021/11/22 03:34:24;;;;;;;6.72;2.10;;;5.70;85.60;;;;;;5081916;28;20533;-80
2021/11/22 03:36:51;;;;;;;13.70;1.77;;;5.70;85.90;;;;;;5084315;28;20197;-80
2021/11/22 03:39:24;;;;;;;5.90;1.77;;;5.70;85.90;;;;;;5107122;28;20191;-79
2021/11/22 03:41:51;;;;;;;3.85;1.52;;;5.80;85.80;;;;;;5095024;28;20171;-79
2021/11/22 03:44:17;;;;;;;2.95;1.73;;;5.70;85.90;;;;;;5087477;28;20204;-79
2021/11/22 03:46:46;;;;;;;5.60;1.80;;;5.70;86.00;;;;;;5085563;28;20175;-80
2021/11/22 03:49:12;;;;;;;3.28;1.85;;;5.70;86.10;;;;;;5084431;28;20466;-80
2021/11/22 03:51:39;;;;;;;11.63;2.57;;;5.60;86.20;;;;;;5102160;28;20647;-79
2021/11/22 03:54:05;;;;;;;12.07;1.92;;;5.60;86.30;;;;;;5101438;28;20442;-80
2021/11/22 03:56:31;;;;;;;2.88;1.55;;;5.70;86.20;;;;;;5102186;28;20220;-80
2021/11/22 03:58:57;;;;;;;3.95;1.90;;;5.60;86.30;;;;;;5083505;28;20200;-79
2021/11/22 04:01:23;;;;;;;3.77;1.70;;;5.60;86.40;;;;;;5101341;28;20182;-80
2021/11/22 04:03:49;;;;;;;2.97;2.20;;;5.50;87.20;;;;;;5100787;28;20198;-80
2021/11/22 04:06:15;;;;;;;5.00;1.90;;;5.60;86.70;;;;;;5082506;28;20180;-80
2021/11/22 04:08:41;;;;;;;4.00;2.00;;;5.60;86.50;;;;;;5091760;28;20194;-79
2021/11/22 04:11:08;;;;;;;4.75;2.75;;;5.50;86.60;;;;;;5118561;28;20243;-79
2021/11/22 04:13:33;;;;;;;6.90;2.30;;;5.50;86.80;;;;;;5099759;28;20195;-80
2021/11/22 04:16:01;;;;;;;10.80;1.90;;;5.50;86.80;;;;;;5100148;28;20174;-80
2021/11/22 04:18:27;;;;;;;4.50;2.10;;;5.50;86.80;;;;;;5099403;28;20192;-79
2021/11/22 04:20:53;;;;;;;3.88;2.05;;;5.50;86.90;;;;;;5117690;28;20238;-79
2021/11/22 04:23:19;;;;;;;1.77;1.57;;;5.60;86.80;;;;;;5116193;28;20198;-80
2021/11/22 04:25:45;;;;;;;2.97;1.75;;;5.70;86.60;;;;;;5110851;28;20185;-80
2021/11/22 04:28:10;;;;;;;5.33;1.70;;;5.60;86.40;;;;;;5113804;28;20188;-79
2021/11/22 04:30:38;;;;;;;3.27;2.13;;;5.50;87.20;;;;;;5087042;28;20453;-80
2021/11/22 04:33:04;;;;;;;9.23;2.08;;;5.50;86.60;;;;;;5084498;28;20180;-79
2021/11/22 04:35:30;;;;;;;6.15;1.73;;;5.40;86.50;;;;;;5084987;28;20203;-80
2021/11/22 04:37:57;;;;;;;2.05;1.50;;;5.50;86.70;;;;;;5100145;28;20208;-80
2021/11/22 04:40:23;;;;;;;7.55;2.38;;;5.40;86.70;;;;;;5100067;28;20207;-80
2021/11/22 04:42:49;;;;;;;2.90;2.08;;;5.40;86.70;;;;;;5116989;28;20202;-79
2021/11/22 04:45:22;;;;;;;4.40;2.15;;;5.60;86.70;;;;;;5087702;28;20207;-79
2021/11/22 04:47:51;;;;;;;2.83;1.48;;;5.60;86.50;;;;;;5100378;28;20176;-80
2021/11/22 04:50:18;;;;;;;7.90;2.35;;;5.70;86.20;;;;;;5081936;28;20596;-80
2021/11/22 04:52:48;;;;;;;2.63;1.83;;;5.60;85.80;;;;;;5100125;28;20197;-80
2021/11/22 04:55:14;;;;;;;6.05;1.70;;;5.70;85.80;;;;;;5099465;28;20245;-80
2021/11/22 04:57:41;;;;;;;5.25;1.55;;;5.60;85.60;;;;;;5081570;28;20202;-80
2021/11/22 05:00:09;;;;;;;5.53;1.63;;;5.60;85.60;;;;;;5081443;28;20172;-80
2021/11/22 05:02:34;;;;;;;11.77;2.47;;;5.70;85.60;;;;;;5082613;28;20631;-79
2021/11/22 05:05:00;;;;;;;2.67;1.90;;;5.70;85.40;;;;;;5081647;28;20211;-80
2021/11/22 05:07:26;;;;;;;4.03;1.60;;;5.70;85.40;;;;;;5081984;28;20254;-79
2021/11/22 05:09:52;;;;;;;3.83;2.00;;;5.70;85.20;;;;;;5099011;28;20940;-79
2021/11/22 05:12:18;;;;;;;5.30;2.10;;;5.50;85.30;;;;;;5081407;28;20188;-79
2021/11/22 05:14:44;;;;;;;2.63;1.87;;;5.50;85.60;;;;;;5098872;28;20238;-80
2021/11/22 05:17:10;;;;;;;4.70;1.92;;;5.70;85.50;;;;;;5099522;28;20271;-79
2021/11/22 05:19:36;;;;;;;10.90;1.87;;;5.60;85.30;;;;;;5102791;28;20207;-79
2021/11/22 05:22:03;;;;;;;4.40;1.53;;;5.60;85.40;;;;;;5092841;28;20290;-79
2021/11/22 05:24:29;;;;;;;31.73;2.80;;;5.60;85.40;;;;;;5113005;28;20188;-80
2021/11/22 05:26:56;;;;;;;4.38;2.40;;;5.50;85.50;;;;;;5099427;28;20206;-81
2021/11/22 05:29:22;;;;;;;4.45;2.00;;;5.40;85.50;;;;;;5089432;28;20176;-79
2021/11/22 05:31:48;;;;;;;4.70;1.63;;;5.40;85.80;;;;;;5084877;28;20642;-79
2021/11/22 05:34:17;;;;;;;12.00;2.28;;;5.50;86.10;;;;;;5102193;28;20212;-79
2021/11/22 05:36:43;;;;;;;4.00;2.35;;;5.30;86.10;;;;;;5085381;28;20188;-80
2021/11/22 05:39:09;;;;;;;4.18;1.45;;;5.30;86.10;;;;;;5085802;28;20271;-78
2021/11/22 05:41:35;;;;;;;6.22;2.22;;;5.40;86.00;;;;;;5094831;28;20275;-79
2021/11/22 05:44:01;;;;;;;5.47;1.80;;;5.40;86.00;;;;;;5113583;28;20192;-79
2021/11/22 05:46:27;;;;;;;3.87;1.60;;;5.50;86.00;;;;;;5096966;28;20448;-79
2021/11/22 05:48:53;;;;;;;4.22;1.60;;;5.50;85.80;;;;;;5113967;28;20417;-80
2021/11/22 05:51:19;;;;;;;7.53;1.67;;;5.50;85.70;;;;;;5108350;28;20195;-80
2021/11/22 05:53:48;;;;;;;3.05;1.67;;;5.50;85.40;;;;;;5104055;28;20442;-79
2021/11/22 05:56:17;;;;;;;5.38;2.80;;;5.40;85.40;;;;;;5084268;28;20180;-80
2021/11/22 05:58:43;;;;;;;3.88;1.92;;;5.30;85.50;;;;;;5084589;28;20282;-80
2021/11/22 06:01:09;;;;;;;23.17;1.95;;;5.50;85.50;;;;;;5084942;28;20183;-80
2021/11/22 06:03:35;;;;;;;2.50;1.50;;;5.50;85.40;;;;;;5083192;28;20203;-79
2021/11/22 06:06:01;;;;;;;2.07;1.87;;;5.50;85.30;;;;;;5084449;28;20440;-79
2021/11/22 06:08:27;;;;;;;6.93;2.03;;;5.40;85.20;;;;;;5083940;28;20183;-79
2021/11/22 06:10:53;;;;;;;4.90;2.27;;;5.50;85.20;;;;;;5084179;28;20192;-80
2021/11/22 06:13:20;;;;;;;3.20;2.65;;;5.50;85.70;;;;;;5083265;28;20521;-80
2021/11/22 06:15:46;;;;;;;2.42;1.70;;;5.50;84.90;;;;;;5101531;28;20545;-80
2021/11/22 06:18:13;;;;;;;5.20;2.08;;;5.40;85.00;;;;;;5082686;28;20235;-82
2021/11/22 06:20:40;;;;;;;5.60;2.30;;;5.30;85.20;;;;;;5081957;28;20567;-81
2021/11/22 06:23:07;;;;;;;5.43;2.35;;;5.40;85.10;;;;;;5101476;28;20259;-82
2021/11/22 06:25:34;;;;;;;6.00;2.42;;;5.40;85.00;;;;;;5100704;28;20533;-81
2021/11/22 06:28:01;;;;;;;3.15;2.00;;;5.40;85.00;;;;;;5080964;28;20176;-81
2021/11/22 06:30:27;;;;;;;3.38;2.20;;;5.40;84.90;;;;;;5080309;28;20179;-80
2021/11/22 06:32:53;;;;;;;7.03;2.63;;;5.40;84.90;;;;;;5098161;28;20303;-80
2021/11/22 06:35:20;;;;;;;8.02;2.35;;;5.30;85.00;;;;;;5064664;28;20525;-79
2021/11/22 06:37:47;;;;;;;8.45;2.45;;;5.40;84.90;;;;;;5080600;28;20705;-80
2021/11/22 06:40:13;;;;;;;3.90;2.30;;;5.40;84.80;;;;;;5080205;28;20195;-79
2021/11/22 06:42:39;;;;;;;9.20;2.27;;;5.50;84.80;;;;;;5097093;28;20187;-79
2021/11/22 06:45:06;;;;;;;7.43;2.47;;;5.50;84.50;;;;;;5097064;28;20449;-79
2021/11/22 06:47:33;;;;;;;6.32;2.42;;;5.50;84.40;;;;;;5078971;28;20505;-80
2021/11/22 06:49:59;;;;;;;3.90;1.83;;;5.50;84.30;;;;;;5086299;28;20188;-79
2021/11/22 06:52:25;;;;;;;8.15;2.40;;;5.40;84.20;;;;;;5078741;28;20176;-79
2021/11/22 06:54:53;;;;;;;5.63;2.43;;;5.50;84.30;;;;;;5078286;28;20210;-79
2021/11/22 06:57:19;;;;;;;6.55;2.70;;;5.30;84.30;;;;;;5098065;28;20467;-79
2021/11/22 06:59:46;;;;;;;7.90;3.28;;;5.40;84.40;;;;;;5083426;28;20267;-78
2021/11/22 07:02:13;;;;;;;8.50;3.05;;;5.30;84.60;;;;;;5083516;28;20172;-79
2021/11/22 07:04:40;;;;;;;11.25;3.65;;;5.40;84.70;;;;;;5082190;28;20604;-79
2021/11/22 07:07:07;;;;;;;12.10;3.45;;;5.30;84.70;;;;;;5084257;28;20184;-80
2021/11/22 07:09:33;;;;;;;3.08;2.05;;;5.30;84.80;;;;;;5082834;28;20196;-81
2021/11/22 07:11:58;;;;;;;7.20;2.87;;;5.30;84.90;;;;;;5082893;28;20229;-79
2021/11/22 07:14:24;;;;;;;8.90;2.93;;;5.40;84.90;;;;;;5090625;28;20800;-81
2021/11/22 07:16:52;;;;;;;4.73;2.50;;;5.40;84.80;;;;;;5098337;28;20198;-80
2021/11/22 07:19:18;;;;;;;3.90;2.75;;;5.50;84.80;;;;;;5069038;28;20242;-79
2021/11/22 07:21:43;;;;;;;6.30;3.47;;;5.50;84.40;;;;;;5075645;28;20240;-79
2021/11/22 07:24:10;;;;;;;5.20;2.70;;;5.30;84.30;;;;;;5089218;28;20208;-81
2021/11/22 07:26:36;;;;;;;10.98;2.67;;;5.30;84.40;;;;;;5083613;28;20259;-80
2021/11/22 07:29:03;;;;;;;7.30;3.20;;;5.30;84.40;;;;;;5084477;28;20184;-81
2021/11/22 07:31:29;;;;;;;4.13;2.83;;;5.30;84.50;;;;;;5083434;28;20198;-80
2021/11/22 07:33:54;;;;;;;3.80;2.30;;;5.40;84.40;;;;;;5083320;28;20749;-81
2021/11/22 07:36:20;;;;;;;7.00;3.20;;;5.40;84.30;;;;;;5083694;28;20447;-81
2021/11/22 07:38:46;;;;;;;11.10;2.77;;;5.30;84.30;;;;;;5083737;28;20517;-80
2021/11/22 07:41:12;;;;;;;3.15;2.47;;;5.30;84.50;;;;;;5101559;28;20544;-80
2021/11/22 07:43:38;;;;;;;3.90;2.53;;;5.30;84.60;;;;;;5083269;28;20682;-81
2021/11/22 07:46:04;;;;;;;8.00;2.93;;;5.30;84.60;;;;;;5084104;28;20175;-81
2021/11/22 07:48:29;;;;;;;6.70;3.37;;;5.30;84.70;;;;;;5083731;28;20545;-81
2021/11/22 07:50:55;;;;;;;10.50;3.60;;;5.40;84.60;;;;;;5083267;28;20426;-81
2021/11/22 07:53:21;;;;;;;5.37;2.93;;;5.50;84.50;;;;;;5100838;28;20171;-80
2021/11/22 07:55:47;;;;;;;7.10;2.77;;;5.50;84.40;;;;;;5102191;28;20522;-81
2021/11/22 07:58:13;;;;;;;7.95;3.33;;;5.50;84.10;;;;;;5084421;28;20230;-80
2021/11/22 08:00:39;;;;;;;4.95;2.90;;;5.40;83.80;;;;;;5083925;28;20224;-81
2021/11/22 08:03:05;;;;;;;6.60;2.58;;;5.50;83.90;;;;;;5083075;28;20655;-80
2021/11/22 08:05:32;;;;;;;6.50;2.70;;;5.30;83.80;;;;;;5083288;28;20235;-80
2021/11/22 08:07:58;;;;;;;6.70;3.15;;;5.30;84.10;;;;;;5082348;28;20421;-80
2021/11/22 08:10:29;;;;;;;2.65;2.45;;;5.40;84.00;;;;;;5102770;28;20200;-80
2021/11/22 08:13:02;;;;;;;12.52;2.95;;;5.50;83.70;;;;;;5120471;28;20168;-82
2021/11/22 08:15:30;;;;;;;3.58;2.60;;;5.50;83.70;;;;;;5121280;28;20210;-81
2021/11/22 08:18:00;;;;;;;10.65;2.90;;;5.50;83.60;;;;;;5120860;28;20259;-81
2021/11/22 08:20:26;;;;;;;5.15;3.63;;;5.50;83.60;;;;;;5103693;28;20222;-80
2021/11/22 08:22:53;;;;;;;17.92;3.63;;;5.50;83.60;;;;;;5103375;28;20179;-81
2021/11/22 08:25:21;;;;;;;4.40;2.72;;;5.60;83.40;;;;;;5102050;28;20228;-81
2021/11/22 08:27:46;;;;;;;4.95;2.60;;;5.70;83.20;;;;;;5102254;28;20183;-80
2021/11/22 08:30:17;;;;;;;7.80;2.30;;;5.60;83.00;;;;;;5101870;28;20179;-80
2021/11/22 08:32:45;;;;;;;11.27;2.95;;;5.60;82.90;;;;;;5102265;28;20420;-80
2021/11/22 08:35:12;;;;;;;6.18;2.22;;;5.60;82.70;;;;;;5120515;28;20195;-80
2021/11/22 08:37:39;;;;;;;6.25;2.38;;;5.60;82.90;;;;;;5115241;28;20208;-81
2021/11/22 08:40:08;;;;;;;11.10;2.15;;;5.70;82.90;;;;;;5084836;28;20209;-81
2021/11/22 08:42:34;;;;;;;5.70;2.97;;;5.80;82.50;;;;;;5102312;28;20204;-80
2021/11/22 08:45:00;;;;;;;4.90;2.47;;;5.90;82.30;;;;;;5119561;28;20244;-80
2021/11/22 08:47:27;;;;;;;16.38;1.70;;;6.00;82.00;;;;;;5102676;28;20167;-80
2021/11/22 08:49:53;;;;;;;4.70;2.15;;;6.00;81.70;;;;;;5102867;28;20167;-80
2021/11/22 08:52:20;;;;;;;7.65;1.95;;;6.10;81.50;;;;;;5121440;28;20175;-81
2021/11/22 08:54:46;;;;;;;2.33;1.90;;;6.10;81.10;;;;;;5120013;28;20179;-81
2021/11/22 08:57:12;;;;;;;1.80;1.65;;;6.10;80.80;;;;;;5103799;28;20211;-82
2021/11/22 08:59:40;;;;;;;9.83;2.67;;;6.20;80.80;;;;;;5102370;28;20178;-82
2021/11/22 09:02:06;;;;;;;1.90;1.80;;;6.40;80.70;;;;;;5103025;28;20171;-82
2021/11/22 09:04:32;;;;;;;4.20;2.00;;;6.40;80.50;;;;;;5101477;28;20632;-82
2021/11/22 09:06:57;;;;;;;7.17;2.27;;;6.30;80.20;;;;;;5102575;28;20167;-82
2021/11/22 09:09:23;;;;;;;1.90;1.60;;;6.40;80.00;;;;;;5102148;28;20270;-82
2021/11/22 09:11:50;;;;;;;12.83;2.87;;;6.50;79.60;;;;;;5121483;28;20631;-82
2021/11/22 09:14:16;;;;;;;6.85;2.00;;;6.50;79.40;;;;;;5102454;28;20914;-82
2021/11/22 09:16:42;;;;;;;4.05;2.15;;;6.60;79.40;;;;;;5102225;28;20179;-82
2021/11/22 09:19:08;;;;;;;7.55;2.60;;;6.70;79.20;;;;;;5083081;28;20242;-82
2021/11/22 09:21:34;;;;;;;9.20;1.83;;;6.90;78.80;;;;;;5099149;28;20156;-82
2021/11/22 09:24:02;;;;;;;10.18;1.80;;;6.90;78.50;;;;;;5098767;28;20433;-82
2021/11/22 09:26:28;;;;;;;5.78;3.03;;;7.00;78.20;;;;;;5099253;28;20198;-82
2021/11/22 09:28:54;;;;;;;4.60;3.45;;;7.00;78.30;;;;;;5080363;28;20180;-82
2021/11/22 09:31:20;;;;;;;1.67;1.50;;;7.00;77.50;;;;;;5080599;28;20179;-82
2021/11/22 09:33:47;;;;;;;2.10;1.57;;;6.90;77.60;;;;;;5097135;28;20199;-82
2021/11/22 09:36:13;;;;;;;2.13;1.92;;;7.10;78.40;;;;;;5097730;28;20172;-82
2021/11/22 09:38:40;;;;;;;1.95;1.85;;;7.00;77.30;;;;;;5078922;28;20656;-82
2021/11/22 09:41:06;;;;;;;3.92;2.03;;;7.00;76.90;;;;;;5104248;28;20196;-82
2021/11/22 09:43:32;;;;;;;6.20;1.92;;;6.90;76.60;;;;;;5076925;28;20179;-82
2021/11/22 09:45:59;;;;;;;2.63;1.63;;;7.10;76.60;;;;;;5079675;28;20270;-82
2021/11/22 09:48:25;;;;;;;2.50;1.67;;;7.00;76.40;;;;;;5099135;28;20240;-82
2021/11/22 09:50:51;;;;;;;4.20;1.45;;;7.00;76.50;;;;;;5080518;28;20172;-82
2021/11/22 09:53:17;;;;;;;5.60;2.13;;;7.00;76.50;;;;;;5081110;28;20180;-82
2021/11/22 09:55:43;;;;;;;4.40;1.90;;;7.00;76.00;;;;;;5100968;28;20235;-82
2021/11/22 09:58:11;;;;;;;5.07;2.13;;;7.10;76.20;;;;;;5084785;28;20461;-82
2021/11/22 10:00:43;;;;;;;2.35;1.75;;;7.20;76.00;;;;;;5091387;28;20437;-82
2021/11/22 10:03:21;;;;;;;9.68;1.98;;;7.20;75.70;;;;;;5106225;28;20164;-82
2021/11/22 10:05:47;;;;;;;3.22;1.52;;;7.40;75.60;;;;;;5082409;28;20164;-82
2021/11/22 10:08:16;;;;;;;7.15;2.25;;;7.40;75.10;;;;;;5099717;28;20226;-82
2021/11/22 10:10:44;;;;;;;4.65;1.65;;;7.30;74.60;;;;;;5104471;28;20179;-82
2021/11/22 10:13:22;;;;;;;4.10;1.80;;;7.40;74.80;;;;;;5102087;28;20179;-82
2021/11/22 10:15:51;;;;;;;8.90;2.22;;;7.50;74.30;;;;;;5103340;28;20183;-81
2021/11/22 10:18:26;;;;;;;4.20;1.70;;;7.50;74.00;;;;;;5097778;28;20236;-82
2021/11/22 10:20:54;;;;;;;5.88;1.88;;;7.50;73.90;;;;;;5094360;28;20160;-82
2021/11/22 10:23:26;;;;;;;5.30;1.40;;;7.50;73.60;;;;;;5117216;28;20168;-82
2021/11/22 10:25:53;;;;;;;3.05;1.50;;;7.50;73.30;;;;;;5099580;28;20176;-81
2021/11/22 10:28:29;;;;;;;4.65;1.90;;;7.60;73.50;;;;;;5098590;28;20179;-81
2021/11/22 10:30:54;;;;;;;1.30;1.20;;;7.60;73.50;;;;;;5099208;28;20189;-81
2021/11/22 10:33:31;;;;;;;15.77;1.80;;;7.50;72.90;;;;;;5117607;28;20184;-81
2021/11/22 10:36:00;;;;;;;4.97;1.48;;;7.50;73.20;;;;;;5099035;28;20168;-81
2021/11/22 10:38:35;;;;;;;2.88;1.20;;;7.60;72.60;;;;;;5095211;28;20200;-81
2021/11/22 10:41:12;;;;;;;4.05;1.40;;;7.60;72.10;;;;;;5097568;28;20178;-81
2021/11/22 10:43:51;;;;;;;4.93;1.30;;;7.70;71.50;;;;;;5113196;28;20290;-81
2021/11/22 10:46:30;;;;;;;3.47;1.27;;;7.90;71.20;;;;;;5117971;28;20144;-81
2021/11/22 10:49:13;;;;;;;3.22;1.45;;;8.10;71.30;;;;;;5096295;28;20172;-81
2021/11/22 10:51:44;;;;;;;1.60;1.30;;;7.90;69.50;;;;;;5113964;28;20154;-81
2021/11/22 10:54:12;;;;;;;4.15;1.73;;;7.90;68.20;;;;;;5100353;28;20191;-81
2021/11/22 10:56:41;;;;;;;2.60;1.92;;;8.00;68.50;;;;;;5118861;28;20703;-82
2021/11/22 10:59:16;;;;;;;4.20;1.35;;;8.00;68.30;;;;;;5096115;28;20208;-81
2021/11/22 11:01:43;;;;;;;2.95;1.40;;;7.90;68.40;;;;;;5097098;28;20202;-81
2021/11/22 11:04:23;;;;;;;3.95;1.40;;;7.90;68.10;;;;;;5108638;28;20199;-82
2021/11/22 11:07:02;;;;;;;3.25;1.40;;;7.90;67.50;;;;;;5108978;28;20160;-82
2021/11/22 11:09:50;;;;;;;4.35;1.20;;;7.90;66.50;;;;;;5108786;28;20180;-81
2021/11/22 11:12:19;;;;;;;7.82;1.30;;;7.90;65.80;;;;;;5119516;28;20225;-81
2021/11/22 11:14:56;;;;;;;4.20;1.80;;;8.00;65.70;;;;;;5139738;28;20206;-81
2021/11/22 11:17:36;;;;;;;2.95;1.20;;;8.20;65.80;;;;;;5139562;28;20171;-81
2021/11/22 11:20:11;;;;;;;2.00;1.23;;;8.20;65.90;;;;;;5111628;28;20220;-82
2021/11/22 11:22:38;;;;;;;9.77;1.30;;;8.30;65.90;;;;;;5105945;28;20220;-81
2021/11/22 11:25:05;;;;;;;2.97;1.25;;;8.40;66.20;;;;;;5122694;28;20722;-81
2021/11/22 11:27:33;;;;;;;7.05;1.90;;;8.40;65.80;;;;;;5103977;28;20175;-81
2021/11/22 11:29:59;;;;;;;1.60;1.25;;;8.40;65.50;;;;;;5105165;28;20172;-80
2021/11/22 11:32:26;;;;;;;2.17;1.25;;;8.30;65.30;;;;;;5122745;28;20171;-81
2021/11/22 11:34:52;;;;;;;3.13;1.75;;;8.20;65.30;;;;;;5104635;28;20209;-81
2021/11/22 11:37:30;;;;;;;3.45;1.90;;;8.30;65.20;;;;;;5106126;28;20275;-81
2021/11/22 11:40:10;;;;;;;3.95;1.50;;;8.30;65.40;;;;;;5083766;28;20650;-81
2021/11/22 11:42:54;;;;;;;4.00;1.50;;;8.30;65.70;;;;;;5103798;28;20176;-80
2021/11/22 11:45:29;;;;;;;9.55;1.52;;;8.50;66.30;;;;;;5084346;28;20262;-81
2021/11/22 11:48:07;;;;;;;3.30;1.33;;;8.50;66.20;;;;;;5084871;28;20202;-81
2021/11/22 11:50:38;;;;;;;5.88;1.33;;;8.40;65.80;;;;;;5084549;28;20175;-81
2021/11/22 11:53:12;;;;;;;2.75;2.55;;;8.60;65.90;;;;;;5084351;28;20266;-82
2021/11/22 11:55:38;;;;;;;3.83;2.13;;;8.60;65.10;;;;;;5109765;28;20247;-81
2021/11/22 11:58:24;;;;;;;4.18;1.70;;;8.80;64.90;;;;;;5104511;28;20263;-81
2021/11/22 12:01:06;;;;;;;3.72;2.50;;;8.80;64.30;;;;;;5105589;28;20172;-84
2021/11/22 12:04:01;;;;;;;9.52;2.60;;;8.70;64.30;;;;;;5123596;28;20582;-82
2021/11/22 12:06:46;;;;;;;7.18;1.60;;;8.60;64.50;;;;;;5101230;28;20182;-82
2021/11/22 12:09:41;;;;;;;3.75;1.48;;;8.60;64.30;;;;;;5105686;28;20175;-82
2021/11/22 12:12:13;;;;;;;2.35;2.15;;;8.70;64.10;;;;;;5089649;28;20176;-81
2021/11/22 12:14:55;;;;;;;3.08;1.77;;;8.60;63.70;;;;;;5104330;28;20215;-82
2021/11/22 12:17:34;;;;;;;1.33;1.00;;;8.70;63.90;;;;;;5087822;28;20207;-82
2021/11/22 12:20:10;;;;;;;2.05;1.35;;;8.60;62.60;;;;;;5093400;28;20221;-82
2021/11/22 12:22:36;;;;;;;3.10;1.15;;;8.60;62.50;;;;;;5094789;28;20179;-82
2021/11/22 12:25:02;;;;;;;1.43;1.20;;;8.70;62.60;;;;;;5114061;28;20234;-82
2021/11/22 12:27:28;;;;;;;1.60;1.50;;;8.50;61.50;;;;;;5111428;28;20191;-82
2021/11/22 12:29:59;;;;;;;4.17;1.57;;;8.50;61.60;;;;;;5083659;28;20194;-82
2021/11/22 12:32:36;;;;;;;3.08;1.55;;;8.60;61.10;;;;;;5085453;28;20172;-81
2021/11/22 12:35:05;;;;;;;2.22;1.10;;;8.70;61.10;;;;;;5081605;28;20222;-82
2021/11/22 12:37:35;;;;;;;4.00;1.67;;;8.80;61.00;;;;;;5081681;28;20223;-82
2021/11/22 12:40:16;;;;;;;3.00;1.15;;;8.80;60.20;;;;;;5081344;28;20183;-82
2021/11/22 12:42:45;;;;;;;2.25;1.13;;;8.80;59.00;;;;;;5101802;28;20554;-82
2021/11/22 12:45:10;;;;;;;3.03;1.52;;;8.80;58.60;;;;;;5081270;28;20195;-82
2021/11/22 12:47:36;;;;;;;1.87;1.20;;;8.90;59.10;;;;;;5079938;28;20187;-82
2021/11/22 12:50:08;;;;;;;3.10;1.20;;;9.00;59.60;;;;;;5079710;28;20187;-82
2021/11/22 12:52:36;;;;;;;4.00;1.20;;;9.00;60.00;;;;;;5077522;28;20544;-82
2021/11/22 12:55:15;;;;;;;2.25;1.15;;;9.10;60.00;;;;;;5097355;28;20207;-82
2021/11/22 12:57:44;;;;;;;1.40;1.20;;;9.10;60.00;;;;;;5081246;28;20574;-82
2021/11/22 13:00:21;;;;;;;1.10;1.00;;;9.00;58.60;;;;;;5100660;28;20184;-82